sensor_id;sensor_type;location;lat;lon;timestamp;temperature;humidity
59301;DHT22;45073;52.740;6.784;2023-02-11T00:01:05;7.20;99.90
59301;DHT22;45073;52.740;6.784;2023-02-11T00:03:31;7.20;99.90
59301;DHT22;45073;52.740;6.784;2023-02-11T00:06:02;7.20;99.90
59301;DHT22;45073;52.740;6.784;2023-02-11T00:08:28;7.20;99.90
59301;DHT22;45073;52.740;6.784;2023-02-11T00:10:55;7.20;99.90
59301;DHT22;45073;52.740;6.784;2023-02-11T00:13:22;7.20;99.90
59301;DHT22;45073;52.740;6.784;2023-02-11T00:15:48;7.30;99.90
59301;DHT22;45073;52.740;6.784;2023-02-11T00:18:14;7.20;99.90
59301;DHT22;45073;52.740;6.784;2023-02-11T00:20:40;7.20;99.90
59301;DHT22;45073;52.740;6.784;2023-02-11T00:23:07;7.30;99.90
59301;DHT22;45073;52.740;6.784;2023-02-11T00:25:32;7.30;99.90
59301;DHT22;45073;52.740;6.784;2023-02-11T00:27:58;7.30;99.90
59301;DHT22;45073;52.740;6.784;2023-02-11T00:30:24;7.30;99.90
59301;DHT22;45073;52.740;6.784;2023-02-11T00:32:50;7.30;99.90
59301;DHT22;45073;52.740;6.784;2023-02-11T00:35:15;7.30;99.90
59301;DHT22;45073;52.740;6.784;2023-02-11T00:37:41;7.30;99.90
59301;DHT22;45073;52.740;6.784;2023-02-11T00:40:07;7.30;99.90
59301;DHT22;45073;52.740;6.784;2023-02-11T00:42:33;7.30;99.90
59301;DHT22;45073;52.740;6.784;2023-02-11T00:45:03;7.30;99.90
59301;DHT22;45073;52.740;6.784;2023-02-11T00:47:28;7.30;99.90
59301;DHT22;45073;52.740;6.784;2023-02-11T00:49:54;7.30;99.90
59301;DHT22;45073;52.740;6.784;2023-02-11T00:52:19;7.30;99.90
59301;DHT22;45073;52.740;6.784;2023-02-11T00:54:45;7.30;99.90
59301;DHT22;45073;52.740;6.784;2023-02-11T00:57:11;7.30;99.90
59301;DHT22;45073;52.740;6.784;2023-02-11T00:59:36;7.30;99.90
59301;DHT22;45073;52.740;6.784;2023-02-11T01:02:02;7.30;99.90
59301;DHT22;45073;52.740;6.784;2023-02-11T01:04:28;7.30;99.90
59301;DHT22;45073;52.740;6.784;2023-02-11T01:06:53;7.30;99.90
59301;DHT22;45073;52.740;6.784;2023-02-11T01:09:19;7.30;99.90
59301;DHT22;45073;52.740;6.784;2023-02-11T01:11:45;7.30;99.90
59301;DHT22;45073;52.740;6.784;2023-02-11T01:14:11;7.30;99.90
59301;DHT22;45073;52.740;6.784;2023-02-11T01:16:37;7.30;99.90
59301;DHT22;45073;52.740;6.784;2023-02-11T01:19:03;7.30;99.90
59301;DHT22;45073;52.740;6.784;2023-02-11T01:21:29;7.20;99.90
59301;DHT22;45073;52.740;6.784;2023-02-11T01:23:54;7.30;99.90
59301;DHT22;45073;52.740;6.784;2023-02-11T01:26:20;7.20;99.90
59301;DHT22;45073;52.740;6.784;2023-02-11T01:28:46;7.30;99.90
59301;DHT22;45073;52.740;6.784;2023-02-11T01:31:11;7.20;99.90
59301;DHT22;45073;52.740;6.784;2023-02-11T01:33:37;7.20;99.90
59301;DHT22;45073;52.740;6.784;2023-02-11T01:36:04;7.20;99.90
59301;DHT22;45073;52.740;6.784;2023-02-11T01:38:30;7.20;99.90
59301;DHT22;45073;52.740;6.784;2023-02-11T01:43:25;7.20;99.90
59301;DHT22;45073;52.740;6.784;2023-02-11T01:45:58;7.20;99.90
59301;DHT22;45073;52.740;6.784;2023-02-11T01:50:58;7.20;99.90
59301;DHT22;45073;52.740;6.784;2023-02-11T01:53:25;7.20;99.90
59301;DHT22;45073;52.740;6.784;2023-02-11T01:56:10;7.10;99.90
59301;DHT22;45073;52.740;6.784;2023-02-11T01:59:01;7.20;99.90
59301;DHT22;45073;52.740;6.784;2023-02-11T02:01:31;7.10;99.90
59301;DHT22;45073;52.740;6.784;2023-02-11T02:04:00;7.10;99.90
59301;DHT22;45073;52.740;6.784;2023-02-11T02:06:51;7.10;99.90
59301;DHT22;45073;52.740;6.784;2023-02-11T02:09:22;7.20;99.90
59301;DHT22;45073;52.740;6.784;2023-02-11T02:11:49;7.10;99.90
59301;DHT22;45073;52.740;6.784;2023-02-11T02:14:15;7.20;99.90
59301;DHT22;45073;52.740;6.784;2023-02-11T02:16:41;7.10;99.90
59301;DHT22;45073;52.740;6.784;2023-02-11T02:30:41;7.20;99.90
59301;DHT22;45073;52.740;6.784;2023-02-11T02:33:13;7.10;99.90
59301;DHT22;45073;52.740;6.784;2023-02-11T02:35:47;7.10;99.90
59301;DHT22;45073;52.740;6.784;2023-02-11T02:41:27;7.20;99.90
59301;DHT22;45073;52.740;6.784;2023-02-11T02:43:54;7.20;99.90
59301;DHT22;45073;52.740;6.784;2023-02-11T02:46:26;7.30;99.90
59301;DHT22;45073;52.740;6.784;2023-02-11T02:48:52;7.30;99.90
59301;DHT22;45073;52.740;6.784;2023-02-11T03:05:02;7.30;99.90
59301;DHT22;45073;52.740;6.784;2023-02-11T03:12:53;7.30;99.90
59301;DHT22;45073;52.740;6.784;2023-02-11T03:15:21;7.30;99.90
59301;DHT22;45073;52.740;6.784;2023-02-11T03:17:51;7.30;99.90
59301;DHT22;45073;52.740;6.784;2023-02-11T03:20:18;7.30;99.90
59301;DHT22;45073;52.740;6.784;2023-02-11T03:22:48;7.30;99.90
59301;DHT22;45073;52.740;6.784;2023-02-11T03:25:15;7.30;99.90
59301;DHT22;45073;52.740;6.784;2023-02-11T03:28:05;7.30;99.90
59301;DHT22;45073;52.740;6.784;2023-02-11T03:30:38;7.30;99.90
59301;DHT22;45073;52.740;6.784;2023-02-11T03:33:11;7.30;99.90
59301;DHT22;45073;52.740;6.784;2023-02-11T03:35:48;7.30;99.90
59301;DHT22;45073;52.740;6.784;2023-02-11T03:38:36;7.30;99.90
59301;DHT22;45073;52.740;6.784;2023-02-11T03:41:05;7.30;99.90
59301;DHT22;45073;52.740;6.784;2023-02-11T03:43:43;7.30;99.90
59301;DHT22;45073;52.740;6.784;2023-02-11T03:46:11;7.30;99.90
59301;DHT22;45073;52.740;6.784;2023-02-11T03:48:40;7.30;99.90
59301;DHT22;45073;52.740;6.784;2023-02-11T03:51:10;7.30;99.90
59301;DHT22;45073;52.740;6.784;2023-02-11T03:53:38;7.30;99.90
59301;DHT22;45073;52.740;6.784;2023-02-11T03:56:08;7.30;99.90
59301;DHT22;45073;52.740;6.784;2023-02-11T03:58:34;7.30;99.90
59301;DHT22;45073;52.740;6.784;2023-02-11T04:01:00;7.30;99.90
59301;DHT22;45073;52.740;6.784;2023-02-11T04:03:27;7.30;99.90
59301;DHT22;45073;52.740;6.784;2023-02-11T04:05:53;7.30;99.90
59301;DHT22;45073;52.740;6.784;2023-02-11T04:08:19;7.30;99.90
59301;DHT22;45073;52.740;6.784;2023-02-11T04:10:45;7.30;99.90
59301;DHT22;45073;52.740;6.784;2023-02-11T04:13:10;7.30;99.90
59301;DHT22;45073;52.740;6.784;2023-02-11T04:15:36;7.40;99.90
59301;DHT22;45073;52.740;6.784;2023-02-11T04:18:02;7.40;99.90
59301;DHT22;45073;52.740;6.784;2023-02-11T04:20:28;7.40;99.90
59301;DHT22;45073;52.740;6.784;2023-02-11T04:22:54;7.40;99.90
59301;DHT22;45073;52.740;6.784;2023-02-11T04:25:20;7.40;99.90
59301;DHT22;45073;52.740;6.784;2023-02-11T04:27:45;7.40;99.90
59301;DHT22;45073;52.740;6.784;2023-02-11T04:30:11;7.40;99.90
59301;DHT22;45073;52.740;6.784;2023-02-11T04:32:37;7.40;99.90
59301;DHT22;45073;52.740;6.784;2023-02-11T04:35:03;7.40;99.90
59301;DHT22;45073;52.740;6.784;2023-02-11T04:37:29;7.40;99.90
59301;DHT22;45073;52.740;6.784;2023-02-11T04:39:55;7.40;99.90
59301;DHT22;45073;52.740;6.784;2023-02-11T04:42:22;7.40;99.90
59301;DHT22;45073;52.740;6.784;2023-02-11T04:44:47;7.40;99.90
59301;DHT22;45073;52.740;6.784;2023-02-11T04:47:13;7.50;99.90
59301;DHT22;45073;52.740;6.784;2023-02-11T04:49:40;7.50;99.90
59301;DHT22;45073;52.740;6.784;2023-02-11T04:52:07;7.50;99.90
59301;DHT22;45073;52.740;6.784;2023-02-11T04:54:33;7.40;99.90
59301;DHT22;45073;52.740;6.784;2023-02-11T04:56:58;7.50;99.90
59301;DHT22;45073;52.740;6.784;2023-02-11T04:59:24;7.50;99.90
59301;DHT22;45073;52.740;6.784;2023-02-11T05:01:50;7.50;99.90
59301;DHT22;45073;52.740;6.784;2023-02-11T05:04:16;7.50;99.90
59301;DHT22;45073;52.740;6.784;2023-02-11T05:06:42;7.50;99.90
59301;DHT22;45073;52.740;6.784;2023-02-11T05:09:10;7.60;99.90
59301;DHT22;45073;52.740;6.784;2023-02-11T05:11:35;7.60;99.90
59301;DHT22;45073;52.740;6.784;2023-02-11T05:14:01;7.60;99.90
59301;DHT22;45073;52.740;6.784;2023-02-11T05:16:26;7.60;99.90
59301;DHT22;45073;52.740;6.784;2023-02-11T05:18:52;7.60;99.90
59301;DHT22;45073;52.740;6.784;2023-02-11T05:21:20;7.60;99.90
59301;DHT22;45073;52.740;6.784;2023-02-11T05:23:46;7.60;99.90
59301;DHT22;45073;52.740;6.784;2023-02-11T05:26:12;7.70;99.90
59301;DHT22;45073;52.740;6.784;2023-02-11T05:28:39;7.70;99.90
59301;DHT22;45073;52.740;6.784;2023-02-11T05:31:05;7.70;99.90
59301;DHT22;45073;52.740;6.784;2023-02-11T05:33:31;7.70;99.90
59301;DHT22;45073;52.740;6.784;2023-02-11T05:36:01;7.70;99.90
59301;DHT22;45073;52.740;6.784;2023-02-11T05:38:27;7.70;99.90
59301;DHT22;45073;52.740;6.784;2023-02-11T05:40:52;7.70;99.90
59301;DHT22;45073;52.740;6.784;2023-02-11T05:43:18;7.70;99.90
59301;DHT22;45073;52.740;6.784;2023-02-11T05:45:45;7.70;99.90
59301;DHT22;45073;52.740;6.784;2023-02-11T05:48:10;7.70;99.90
59301;DHT22;45073;52.740;6.784;2023-02-11T05:50:39;7.70;99.90
59301;DHT22;45073;52.740;6.784;2023-02-11T05:53:05;7.70;99.90
59301;DHT22;45073;52.740;6.784;2023-02-11T05:55:31;7.70;99.90
59301;DHT22;45073;52.740;6.784;2023-02-11T05:57:57;7.70;99.90
59301;DHT22;45073;52.740;6.784;2023-02-11T06:00:22;7.80;99.90
59301;DHT22;45073;52.740;6.784;2023-02-11T06:02:48;7.80;99.90
59301;DHT22;45073;52.740;6.784;2023-02-11T06:05:14;7.80;99.90
59301;DHT22;45073;52.740;6.784;2023-02-11T06:07:40;7.70;99.90
59301;DHT22;45073;52.740;6.784;2023-02-11T06:10:06;7.80;99.90
59301;DHT22;45073;52.740;6.784;2023-02-11T06:12:32;7.80;99.90
59301;DHT22;45073;52.740;6.784;2023-02-11T06:14:57;7.70;99.90
59301;DHT22;45073;52.740;6.784;2023-02-11T06:17:23;7.80;99.90
59301;DHT22;45073;52.740;6.784;2023-02-11T06:19:50;7.80;99.90
59301;DHT22;45073;52.740;6.784;2023-02-11T06:22:16;7.80;99.90
59301;DHT22;45073;52.740;6.784;2023-02-11T06:24:42;7.70;99.90
59301;DHT22;45073;52.740;6.784;2023-02-11T06:27:08;7.80;99.90
59301;DHT22;45073;52.740;6.784;2023-02-11T06:29:33;7.70;99.90
59301;DHT22;45073;52.740;6.784;2023-02-11T06:31:59;7.80;99.90
59301;DHT22;45073;52.740;6.784;2023-02-11T06:34:25;7.70;99.90
59301;DHT22;45073;52.740;6.784;2023-02-11T06:36:50;7.70;99.90
59301;DHT22;45073;52.740;6.784;2023-02-11T06:39:16;7.70;99.90
59301;DHT22;45073;52.740;6.784;2023-02-11T06:41:41;7.70;99.90
59301;DHT22;45073;52.740;6.784;2023-02-11T06:44:07;7.70;99.90
59301;DHT22;45073;52.740;6.784;2023-02-11T06:46:33;7.70;99.90
59301;DHT22;45073;52.740;6.784;2023-02-11T06:48:58;7.70;99.90
59301;DHT22;45073;52.740;6.784;2023-02-11T06:51:24;7.70;99.90
59301;DHT22;45073;52.740;6.784;2023-02-11T06:53:49;7.70;99.90
59301;DHT22;45073;52.740;6.784;2023-02-11T06:56:19;7.70;99.90
59301;DHT22;45073;52.740;6.784;2023-02-11T06:58:45;7.70;99.90
59301;DHT22;45073;52.740;6.784;2023-02-11T07:01:13;7.70;99.90
59301;DHT22;45073;52.740;6.784;2023-02-11T07:03:41;7.70;99.90
59301;DHT22;45073;52.740;6.784;2023-02-11T07:06:13;7.70;99.90
59301;DHT22;45073;52.740;6.784;2023-02-11T07:08:39;7.70;99.90
59301;DHT22;45073;52.740;6.784;2023-02-11T07:11:11;7.70;99.90
59301;DHT22;45073;52.740;6.784;2023-02-11T07:13:37;7.70;99.90
59301;DHT22;45073;52.740;6.784;2023-02-11T07:16:08;7.70;99.90
59301;DHT22;45073;52.740;6.784;2023-02-11T07:18:34;7.70;99.90
59301;DHT22;45073;52.740;6.784;2023-02-11T07:21:04;7.70;99.90
59301;DHT22;45073;52.740;6.784;2023-02-11T07:23:30;7.70;99.90
59301;DHT22;45073;52.740;6.784;2023-02-11T07:25:56;7.70;99.90
59301;DHT22;45073;52.740;6.784;2023-02-11T07:28:21;7.70;99.90
59301;DHT22;45073;52.740;6.784;2023-02-11T07:30:47;7.70;99.90
59301;DHT22;45073;52.740;6.784;2023-02-11T07:33:12;7.70;99.90
59301;DHT22;45073;52.740;6.784;2023-02-11T07:35:38;7.70;99.90
59301;DHT22;45073;52.740;6.784;2023-02-11T07:38:04;7.80;99.90
59301;DHT22;45073;52.740;6.784;2023-02-11T07:40:29;7.80;99.90
59301;DHT22;45073;52.740;6.784;2023-02-11T07:42:56;7.80;99.90
59301;DHT22;45073;52.740;6.784;2023-02-11T07:45:22;7.80;99.90
59301;DHT22;45073;52.740;6.784;2023-02-11T07:47:49;7.80;99.90
59301;DHT22;45073;52.740;6.784;2023-02-11T07:50:16;7.80;99.90
59301;DHT22;45073;52.740;6.784;2023-02-11T07:52:41;7.80;99.90
59301;DHT22;45073;52.740;6.784;2023-02-11T07:55:07;7.90;99.90
59301;DHT22;45073;52.740;6.784;2023-02-11T07:57:34;7.90;99.90
59301;DHT22;45073;52.740;6.784;2023-02-11T08:00:00;7.90;99.90
59301;DHT22;45073;52.740;6.784;2023-02-11T08:02:26;7.90;99.90
59301;DHT22;45073;52.740;6.784;2023-02-11T08:04:52;7.90;99.90
59301;DHT22;45073;52.740;6.784;2023-02-11T08:07:18;7.90;99.90
59301;DHT22;45073;52.740;6.784;2023-02-11T08:09:44;7.90;99.90
59301;DHT22;45073;52.740;6.784;2023-02-11T08:12:10;7.90;99.90
59301;DHT22;45073;52.740;6.784;2023-02-11T08:14:36;7.90;99.90
59301;DHT22;45073;52.740;6.784;2023-02-11T08:17:02;7.90;99.90
59301;DHT22;45073;52.740;6.784;2023-02-11T08:19:28;8.00;99.90
59301;DHT22;45073;52.740;6.784;2023-02-11T08:21:57;8.00;99.90
59301;DHT22;45073;52.740;6.784;2023-02-11T08:24:24;8.00;99.90
59301;DHT22;45073;52.740;6.784;2023-02-11T08:26:49;8.00;99.90
59301;DHT22;45073;52.740;6.784;2023-02-11T08:29:16;8.10;99.90
59301;DHT22;45073;52.740;6.784;2023-02-11T08:31:44;8.10;99.90
59301;DHT22;45073;52.740;6.784;2023-02-11T08:34:11;8.10;99.90
59301;DHT22;45073;52.740;6.784;2023-02-11T08:36:40;8.10;99.90
59301;DHT22;45073;52.740;6.784;2023-02-11T08:39:08;8.10;99.90
59301;DHT22;45073;52.740;6.784;2023-02-11T08:41:36;8.10;99.90
59301;DHT22;45073;52.740;6.784;2023-02-11T08:44:02;8.20;99.90
59301;DHT22;45073;52.740;6.784;2023-02-11T08:46:28;8.20;99.90
59301;DHT22;45073;52.740;6.784;2023-02-11T08:48:54;8.20;99.90
59301;DHT22;45073;52.740;6.784;2023-02-11T08:51:27;8.20;99.90
59301;DHT22;45073;52.740;6.784;2023-02-11T08:53:55;8.30;99.90
59301;DHT22;45073;52.740;6.784;2023-02-11T08:56:21;8.30;99.90
59301;DHT22;45073;52.740;6.784;2023-02-11T08:58:50;8.30;99.90
59301;DHT22;45073;52.740;6.784;2023-02-11T09:01:19;8.30;99.90
59301;DHT22;45073;52.740;6.784;2023-02-11T09:03:45;8.30;99.90
59301;DHT22;45073;52.740;6.784;2023-02-11T09:06:11;8.40;99.90
59301;DHT22;45073;52.740;6.784;2023-02-11T09:08:40;8.40;99.90
59301;DHT22;45073;52.740;6.784;2023-02-11T09:11:07;8.50;99.90
59301;DHT22;45073;52.740;6.784;2023-02-11T09:13:33;8.50;99.90
59301;DHT22;45073;52.740;6.784;2023-02-11T09:16:00;8.50;99.90
59301;DHT22;45073;52.740;6.784;2023-02-11T09:18:26;8.50;99.90
59301;DHT22;45073;52.740;6.784;2023-02-11T09:20:53;8.50;99.90
59301;DHT22;45073;52.740;6.784;2023-02-11T09:23:25;8.60;99.90
59301;DHT22;45073;52.740;6.784;2023-02-11T09:25:51;8.60;99.90
59301;DHT22;45073;52.740;6.784;2023-02-11T09:28:16;8.60;99.90
59301;DHT22;45073;52.740;6.784;2023-02-11T09:30:42;8.60;99.90
59301;DHT22;45073;52.740;6.784;2023-02-11T09:33:08;8.70;99.90
59301;DHT22;45073;52.740;6.784;2023-02-11T09:35:33;8.70;99.90
59301;DHT22;45073;52.740;6.784;2023-02-11T09:37:59;8.70;99.90
59301;DHT22;45073;52.740;6.784;2023-02-11T09:40:25;8.80;99.90
59301;DHT22;45073;52.740;6.784;2023-02-11T09:43:04;8.80;99.90
59301;DHT22;45073;52.740;6.784;2023-02-11T09:45:33;8.80;99.90
59301;DHT22;45073;52.740;6.784;2023-02-11T09:48:04;8.90;99.90
59301;DHT22;45073;52.740;6.784;2023-02-11T09:50:38;8.90;99.90
59301;DHT22;45073;52.740;6.784;2023-02-11T09:53:17;8.90;99.90
59301;DHT22;45073;52.740;6.784;2023-02-11T09:55:47;8.90;99.90
59301;DHT22;45073;52.740;6.784;2023-02-11T09:58:17;8.90;99.90
59301;DHT22;45073;52.740;6.784;2023-02-11T10:06:40;9.00;99.90
59301;DHT22;45073;52.740;6.784;2023-02-11T10:15:11;9.10;99.90
59301;DHT22;45073;52.740;6.784;2023-02-11T10:22:51;9.20;99.90
59301;DHT22;45073;52.740;6.784;2023-02-11T10:25:27;9.20;99.90
59301;DHT22;45073;52.740;6.784;2023-02-11T10:27:57;9.20;99.90
59301;DHT22;45073;52.740;6.784;2023-02-11T10:30:36;9.30;99.90
59301;DHT22;45073;52.740;6.784;2023-02-11T10:33:28;9.20;99.90
59301;DHT22;45073;52.740;6.784;2023-02-11T10:35:54;9.30;99.90
59301;DHT22;45073;52.740;6.784;2023-02-11T10:38:20;9.30;99.90
59301;DHT22;45073;52.740;6.784;2023-02-11T10:40:46;9.30;99.90
59301;DHT22;45073;52.740;6.784;2023-02-11T10:43:16;9.30;99.90
59301;DHT22;45073;52.740;6.784;2023-02-11T10:45:51;9.30;99.90
59301;DHT22;45073;52.740;6.784;2023-02-11T10:53:46;9.40;99.90
59301;DHT22;45073;52.740;6.784;2023-02-11T10:56:24;9.40;99.90
59301;DHT22;45073;52.740;6.784;2023-02-11T10:59:01;9.40;99.90
59301;DHT22;45073;52.740;6.784;2023-02-11T11:01:47;9.40;99.90
59301;DHT22;45073;52.740;6.784;2023-02-11T11:06:55;9.40;99.90
59301;DHT22;45073;52.740;6.784;2023-02-11T11:09:51;9.40;99.90
59301;DHT22;45073;52.740;6.784;2023-02-11T11:17:34;9.50;99.90
59301;DHT22;45073;52.740;6.784;2023-02-11T11:22:39;9.70;99.90
59301;DHT22;45073;52.740;6.784;2023-02-11T11:25:05;9.70;99.90
59301;DHT22;45073;52.740;6.784;2023-02-11T11:27:48;9.70;99.90
59301;DHT22;45073;52.740;6.784;2023-02-11T11:30:15;9.80;99.90
59301;DHT22;45073;52.740;6.784;2023-02-11T11:32:41;9.80;99.90
59301;DHT22;45073;52.740;6.784;2023-02-11T11:35:20;9.80;99.90
59301;DHT22;45073;52.740;6.784;2023-02-11T11:37:57;9.90;99.90
59301;DHT22;45073;52.740;6.784;2023-02-11T11:40:32;10.00;99.90
59301;DHT22;45073;52.740;6.784;2023-02-11T11:45:51;10.10;99.90
59301;DHT22;45073;52.740;6.784;2023-02-11T11:48:31;10.20;99.90
59301;DHT22;45073;52.740;6.784;2023-02-11T11:51:03;10.20;99.90
59301;DHT22;45073;52.740;6.784;2023-02-11T11:53:39;10.20;99.90
59301;DHT22;45073;52.740;6.784;2023-02-11T11:56:15;10.20;99.90
59301;DHT22;45073;52.740;6.784;2023-02-11T11:58:41;10.30;99.90
59301;DHT22;45073;52.740;6.784;2023-02-11T12:01:34;10.20;99.90
59301;DHT22;45073;52.740;6.784;2023-02-11T12:17:31;10.00;99.90
59301;DHT22;45073;52.740;6.784;2023-02-11T12:20:21;10.00;99.90
59301;DHT22;45073;52.740;6.784;2023-02-11T12:25:50;10.00;99.90
59301;DHT22;45073;52.740;6.784;2023-02-11T12:45:24;10.00;99.90
59301;DHT22;45073;52.740;6.784;2023-02-11T12:48:06;10.00;99.90
59301;DHT22;45073;52.740;6.784;2023-02-11T12:56:05;10.10;99.90
59301;DHT22;45073;52.740;6.784;2023-02-11T12:58:35;10.10;99.90
59301;DHT22;45073;52.740;6.784;2023-02-11T13:01:23;10.10;99.90
59301;DHT22;45073;52.740;6.784;2023-02-11T13:04:07;10.10;99.90
59301;DHT22;45073;52.740;6.784;2023-02-11T13:06:45;10.10;99.90
59301;DHT22;45073;52.740;6.784;2023-02-11T13:09:17;10.20;99.90
59301;DHT22;45073;52.740;6.784;2023-02-11T13:11:49;10.20;99.90
59301;DHT22;45073;52.740;6.784;2023-02-11T13:16:55;10.20;99.90
59301;DHT22;45073;52.740;6.784;2023-02-11T13:27:29;10.30;99.90
59301;DHT22;45073;52.740;6.784;2023-02-11T13:37:55;10.30;99.90
59301;DHT22;45073;52.740;6.784;2023-02-11T13:40:24;10.40;99.90
59301;DHT22;45073;52.740;6.784;2023-02-11T13:42:56;10.40;99.90
59301;DHT22;45073;52.740;6.784;2023-02-11T13:45:46;10.40;99.90
59301;DHT22;45073;52.740;6.784;2023-02-11T13:48:16;10.40;99.90
59301;DHT22;45073;52.740;6.784;2023-02-11T13:50:53;10.50;99.90
59301;DHT22;45073;52.740;6.784;2023-02-11T13:53:20;10.50;99.90
59301;DHT22;45073;52.740;6.784;2023-02-11T13:55:50;10.60;99.90
59301;DHT22;45073;52.740;6.784;2023-02-11T13:58:18;10.60;99.90
59301;DHT22;45073;52.740;6.784;2023-02-11T14:00:57;10.60;99.90
59301;DHT22;45073;52.740;6.784;2023-02-11T14:03:30;10.50;99.90
59301;DHT22;45073;52.740;6.784;2023-02-11T14:14:22;10.50;99.90
59301;DHT22;45073;52.740;6.784;2023-02-11T14:17:17;10.50;99.90
59301;DHT22;45073;52.740;6.784;2023-02-11T14:19:45;10.50;99.90
59301;DHT22;45073;52.740;6.784;2023-02-11T14:22:42;10.60;99.90
59301;DHT22;45073;52.740;6.784;2023-02-11T14:25:19;10.60;99.90
59301;DHT22;45073;52.740;6.784;2023-02-11T14:27:52;10.60;99.90
59301;DHT22;45073;52.740;6.784;2023-02-11T14:30:56;10.50;99.90
59301;DHT22;45073;52.740;6.784;2023-02-11T14:33:38;10.50;99.90
59301;DHT22;45073;52.740;6.784;2023-02-11T14:36:27;10.50;99.90
59301;DHT22;45073;52.740;6.784;2023-02-11T14:39:17;10.40;99.90
59301;DHT22;45073;52.740;6.784;2023-02-11T14:41:47;10.40;99.90
59301;DHT22;45073;52.740;6.784;2023-02-11T14:44:17;10.40;99.90
59301;DHT22;45073;52.740;6.784;2023-02-11T14:46:48;10.40;99.90
59301;DHT22;45073;52.740;6.784;2023-02-11T14:51:54;10.40;99.90
59301;DHT22;45073;52.740;6.784;2023-02-11T14:54:23;10.40;99.90
59301;DHT22;45073;52.740;6.784;2023-02-11T14:57:16;10.40;99.90
59301;DHT22;45073;52.740;6.784;2023-02-11T14:59:56;10.30;99.90
59301;DHT22;45073;52.740;6.784;2023-02-11T15:02:29;10.30;99.90
59301;DHT22;45073;52.740;6.784;2023-02-11T15:05:20;10.30;99.90
59301;DHT22;45073;52.740;6.784;2023-02-11T15:07:56;10.30;99.90
59301;DHT22;45073;52.740;6.784;2023-02-11T15:10:41;10.20;99.90
59301;DHT22;45073;52.740;6.784;2023-02-11T15:13:08;10.20;99.90
59301;DHT22;45073;52.740;6.784;2023-02-11T15:15:39;10.20;99.90
59301;DHT22;45073;52.740;6.784;2023-02-11T15:18:05;10.30;99.90
59301;DHT22;45073;52.740;6.784;2023-02-11T15:20:32;10.30;99.90
59301;DHT22;45073;52.740;6.784;2023-02-11T15:23:01;10.30;99.90
59301;DHT22;45073;52.740;6.784;2023-02-11T15:25:27;10.30;99.90
59301;DHT22;45073;52.740;6.784;2023-02-11T15:27:55;10.30;99.90
59301;DHT22;45073;52.740;6.784;2023-02-11T15:32:52;10.20;99.90
59301;DHT22;45073;52.740;6.784;2023-02-11T15:35:27;10.20;99.90
59301;DHT22;45073;52.740;6.784;2023-02-11T15:37:54;10.20;99.90
59301;DHT22;45073;52.740;6.784;2023-02-11T15:40:24;10.20;99.90
59301;DHT22;45073;52.740;6.784;2023-02-11T15:43:03;10.10;99.90
59301;DHT22;45073;52.740;6.784;2023-02-11T15:45:58;10.10;99.90
59301;DHT22;45073;52.740;6.784;2023-02-11T15:48:41;10.10;99.90
59301;DHT22;45073;52.740;6.784;2023-02-11T15:51:27;10.10;99.90
59301;DHT22;45073;52.740;6.784;2023-02-11T15:54:02;10.10;99.90
59301;DHT22;45073;52.740;6.784;2023-02-11T15:56:40;10.10;99.90
59301;DHT22;45073;52.740;6.784;2023-02-11T16:01:39;10.10;99.90
59301;DHT22;45073;52.740;6.784;2023-02-11T16:04:05;10.10;99.90
59301;DHT22;45073;52.740;6.784;2023-02-11T16:06:38;10.10;99.90
59301;DHT22;45073;52.740;6.784;2023-02-11T16:14:31;10.00;99.90
59301;DHT22;45073;52.740;6.784;2023-02-11T16:19:46;9.90;99.90
59301;DHT22;45073;52.740;6.784;2023-02-11T16:22:27;9.80;99.90
59301;DHT22;45073;52.740;6.784;2023-02-11T16:24:56;9.80;99.90
59301;DHT22;45073;52.740;6.784;2023-02-11T16:27:31;9.80;99.90
59301;DHT22;45073;52.740;6.784;2023-02-11T16:29:58;9.80;99.90
59301;DHT22;45073;52.740;6.784;2023-02-11T16:32:29;9.70;99.90
59301;DHT22;45073;52.740;6.784;2023-02-11T16:34:57;9.70;99.90
59301;DHT22;45073;52.740;6.784;2023-02-11T16:37:24;9.70;99.90
59301;DHT22;45073;52.740;6.784;2023-02-11T16:39:53;9.70;99.90
59301;DHT22;45073;52.740;6.784;2023-02-11T16:42:19;9.60;99.90
59301;DHT22;45073;52.740;6.784;2023-02-11T16:44:44;9.60;99.90
59301;DHT22;45073;52.740;6.784;2023-02-11T16:47:24;9.60;99.90
59301;DHT22;45073;52.740;6.784;2023-02-11T16:49:50;9.50;99.90
59301;DHT22;45073;52.740;6.784;2023-02-11T16:52:17;9.50;99.90
59301;DHT22;45073;52.740;6.784;2023-02-11T16:54:43;9.50;99.90
59301;DHT22;45073;52.740;6.784;2023-02-11T16:57:16;9.50;99.90
59301;DHT22;45073;52.740;6.784;2023-02-11T16:59:42;9.50;99.90
59301;DHT22;45073;52.740;6.784;2023-02-11T17:04:48;9.40;99.90
59301;DHT22;45073;52.740;6.784;2023-02-11T17:07:14;9.40;99.90
59301;DHT22;45073;52.740;6.784;2023-02-11T17:09:39;9.30;99.90
59301;DHT22;45073;52.740;6.784;2023-02-11T17:12:05;9.30;99.90
59301;DHT22;45073;52.740;6.784;2023-02-11T17:14:31;9.30;99.90
59301;DHT22;45073;52.740;6.784;2023-02-11T17:16:57;9.30;99.90
59301;DHT22;45073;52.740;6.784;2023-02-11T17:19:22;9.20;99.90
59301;DHT22;45073;52.740;6.784;2023-02-11T17:21:50;9.20;99.90
59301;DHT22;45073;52.740;6.784;2023-02-11T17:24:16;9.20;99.90
59301;DHT22;45073;52.740;6.784;2023-02-11T17:26:43;9.20;99.90
59301;DHT22;45073;52.740;6.784;2023-02-11T17:29:11;9.20;99.90
59301;DHT22;45073;52.740;6.784;2023-02-11T17:31:38;9.20;99.90
59301;DHT22;45073;52.740;6.784;2023-02-11T17:34:04;9.20;99.90
59301;DHT22;45073;52.740;6.784;2023-02-11T17:36:29;9.10;99.90
59301;DHT22;45073;52.740;6.784;2023-02-11T17:38:59;9.10;99.90
59301;DHT22;45073;52.740;6.784;2023-02-11T17:41:26;9.10;99.90
59301;DHT22;45073;52.740;6.784;2023-02-11T17:43:52;9.10;99.90
59301;DHT22;45073;52.740;6.784;2023-02-11T17:46:19;9.10;99.90
59301;DHT22;45073;52.740;6.784;2023-02-11T17:48:44;9.10;99.90
59301;DHT22;45073;52.740;6.784;2023-02-11T17:51:25;9.00;99.90
59301;DHT22;45073;52.740;6.784;2023-02-11T17:53:51;9.00;99.90
59301;DHT22;45073;52.740;6.784;2023-02-11T17:56:17;9.00;99.90
59301;DHT22;45073;52.740;6.784;2023-02-11T17:58:43;9.00;99.90
59301;DHT22;45073;52.740;6.784;2023-02-11T18:01:09;9.00;99.90
59301;DHT22;45073;52.740;6.784;2023-02-11T18:03:34;9.00;99.90
59301;DHT22;45073;52.740;6.784;2023-02-11T18:06:02;9.00;99.90
59301;DHT22;45073;52.740;6.784;2023-02-11T18:08:28;9.00;99.90
59301;DHT22;45073;52.740;6.784;2023-02-11T18:10:54;9.00;99.90
59301;DHT22;45073;52.740;6.784;2023-02-11T18:13:19;8.90;99.90
59301;DHT22;45073;52.740;6.784;2023-02-11T18:15:45;8.90;99.90
59301;DHT22;45073;52.740;6.784;2023-02-11T18:18:11;8.90;99.90
59301;DHT22;45073;52.740;6.784;2023-02-11T18:20:36;8.90;99.90
59301;DHT22;45073;52.740;6.784;2023-02-11T18:23:02;8.80;99.90
59301;DHT22;45073;52.740;6.784;2023-02-11T18:25:28;8.90;99.90
59301;DHT22;45073;52.740;6.784;2023-02-11T18:27:54;8.80;99.90
59301;DHT22;45073;52.740;6.784;2023-02-11T18:30:20;8.70;99.90
59301;DHT22;45073;52.740;6.784;2023-02-11T18:32:47;8.80;99.90
59301;DHT22;45073;52.740;6.784;2023-02-11T18:35:17;8.70;99.90